sensor_id;sensor_type;location;lat;lon;timestamp;P1;durP1;ratioP1;P2;durP2;ratioP2
29466;SDS011;60968;37.490;-122.288;2023-08-20T00:03:10;10.00;;;3.70;;
29466;SDS011;60968;37.490;-122.288;2023-08-20T00:06:12;9.37;;;3.47;;
29466;SDS011;60968;37.490;-122.288;2023-08-20T00:09:13;6.67;;;3.13;;
29466;SDS011;60968;37.490;-122.288;2023-08-20T00:12:15;6.67;;;3.40;;
29466;SDS011;60968;37.490;-122.288;2023-08-20T00:15:16;10.73;;;3.63;;
29466;SDS011;60968;37.490;-122.288;2023-08-20T00:18:17;8.77;;;3.70;;
29466;SDS011;60968;37.490;-122.288;2023-08-20T00:21:18;8.30;;;3.63;;
29466;SDS011;60968;37.490;-122.288;2023-08-20T00:24:20;8.40;;;3.60;;
29466;SDS011;60968;37.490;-122.288;2023-08-20T00:27:21;10.37;;;3.87;;
29466;SDS011;60968;37.490;-122.288;2023-08-20T00:30:22;9.40;;;3.63;;
29466;SDS011;60968;37.490;-122.288;2023-08-20T00:33:23;10.40;;;3.70;;
29466;SDS011;60968;37.490;-122.288;2023-08-20T00:36:24;9.90;;;3.67;;
29466;SDS011;60968;37.490;-122.288;2023-08-20T00:39:25;9.57;;;3.43;;
29466;SDS011;60968;37.490;-122.288;2023-08-20T00:42:26;7.93;;;3.40;;
29466;SDS011;60968;37.490;-122.288;2023-08-20T00:45:27;13.33;;;4.17;;
29466;SDS011;60968;37.490;-122.288;2023-08-20T00:48:28;7.73;;;3.40;;
29466;SDS011;60968;37.490;-122.288;2023-08-20T00:51:32;9.20;;;3.87;;
29466;SDS011;60968;37.490;-122.288;2023-08-20T00:54:34;6.37;;;3.50;;
29466;SDS011;60968;37.490;-122.288;2023-08-20T00:57:36;10.77;;;4.07;;
29466;SDS011;60968;37.490;-122.288;2023-08-20T01:00:38;10.40;;;4.40;;
29466;SDS011;60968;37.490;-122.288;2023-08-20T01:03:39;9.03;;;4.27;;
29466;SDS011;60968;37.490;-122.288;2023-08-20T01:07:02;10.27;;;4.07;;
29466;SDS011;60968;37.490;-122.288;2023-08-20T01:10:08;9.43;;;3.93;;
29466;SDS011;60968;37.490;-122.288;2023-08-20T01:13:31;10.57;;;4.10;;
29466;SDS011;60968;37.490;-122.288;2023-08-20T01:16:32;14.57;;;4.37;;
29466;SDS011;60968;37.490;-122.288;2023-08-20T01:19:34;13.47;;;4.07;;
29466;SDS011;60968;37.490;-122.288;2023-08-20T01:22:43;10.93;;;4.00;;
29466;SDS011;60968;37.490;-122.288;2023-08-20T01:29:07;13.67;;;4.90;;
29466;SDS011;60968;37.490;-122.288;2023-08-20T01:32:10;11.27;;;3.70;;
29466;SDS011;60968;37.490;-122.288;2023-08-20T01:35:12;10.27;;;4.30;;
29466;SDS011;60968;37.490;-122.288;2023-08-20T01:38:14;7.40;;;3.70;;
29466;SDS011;60968;37.490;-122.288;2023-08-20T01:41:15;16.40;;;4.20;;
29466;SDS011;60968;37.490;-122.288;2023-08-20T01:44:16;7.90;;;3.57;;
29466;SDS011;60968;37.490;-122.288;2023-08-20T01:47:16;8.47;;;4.00;;
29466;SDS011;60968;37.490;-122.288;2023-08-20T01:50:17;9.23;;;4.50;;
29466;SDS011;60968;37.490;-122.288;2023-08-20T01:53:18;7.50;;;3.87;;
29466;SDS011;60968;37.490;-122.288;2023-08-20T01:56:19;9.43;;;3.67;;
29466;SDS011;60968;37.490;-122.288;2023-08-20T01:59:21;17.90;;;4.23;;
29466;SDS011;60968;37.490;-122.288;2023-08-20T02:02:23;17.77;;;3.60;;
29466;SDS011;60968;37.490;-122.288;2023-08-20T02:05:24;12.23;;;4.10;;
29466;SDS011;60968;37.490;-122.288;2023-08-20T02:08:26;6.57;;;3.60;;
29466;SDS011;60968;37.490;-122.288;2023-08-20T02:11:27;7.70;;;4.00;;
29466;SDS011;60968;37.490;-122.288;2023-08-20T02:14:28;9.97;;;3.73;;
29466;SDS011;60968;37.490;-122.288;2023-08-20T02:17:30;7.83;;;3.43;;
29466;SDS011;60968;37.490;-122.288;2023-08-20T02:20:31;12.67;;;4.20;;
29466;SDS011;60968;37.490;-122.288;2023-08-20T02:23:32;7.43;;;3.73;;
29466;SDS011;60968;37.490;-122.288;2023-08-20T02:26:33;9.80;;;3.47;;
29466;SDS011;60968;37.490;-122.288;2023-08-20T02:29:35;10.40;;;4.13;;
29466;SDS011;60968;37.490;-122.288;2023-08-20T02:32:36;10.40;;;3.90;;
29466;SDS011;60968;37.490;-122.288;2023-08-20T02:35:38;8.13;;;3.60;;
29466;SDS011;60968;37.490;-122.288;2023-08-20T02:38:40;7.13;;;3.50;;
29466;SDS011;60968;37.490;-122.288;2023-08-20T02:41:41;11.17;;;3.70;;
29466;SDS011;60968;37.490;-122.288;2023-08-20T02:44:42;7.07;;;4.43;;
29466;SDS011;60968;37.490;-122.288;2023-08-20T02:47:43;8.47;;;4.33;;
29466;SDS011;60968;37.490;-122.288;2023-08-20T02:50:45;11.73;;;3.83;;
29466;SDS011;60968;37.490;-122.288;2023-08-20T02:53:46;11.77;;;4.27;;
29466;SDS011;60968;37.490;-122.288;2023-08-20T02:56:48;9.43;;;3.97;;
29466;SDS011;60968;37.490;-122.288;2023-08-20T02:59:49;12.73;;;4.57;;
29466;SDS011;60968;37.490;-122.288;2023-08-20T03:02:51;8.53;;;3.80;;
29466;SDS011;60968;37.490;-122.288;2023-08-20T03:05:52;10.90;;;4.23;;
29466;SDS011;60968;37.490;-122.288;2023-08-20T03:08:53;10.43;;;4.03;;
29466;SDS011;60968;37.490;-122.288;2023-08-20T03:11:54;8.60;;;3.63;;
29466;SDS011;60968;37.490;-122.288;2023-08-20T03:14:55;7.73;;;4.23;;
29466;SDS011;60968;37.490;-122.288;2023-08-20T03:17:56;14.77;;;4.43;;
29466;SDS011;60968;37.490;-122.288;2023-08-20T03:20:57;6.90;;;4.63;;
29466;SDS011;60968;37.490;-122.288;2023-08-20T03:23:59;12.23;;;4.73;;
29466;SDS011;60968;37.490;-122.288;2023-08-20T03:27:00;11.80;;;4.07;;
29466;SDS011;60968;37.490;-122.288;2023-08-20T03:30:01;10.00;;;5.07;;
29466;SDS011;60968;37.490;-122.288;2023-08-20T03:33:02;9.50;;;4.63;;
29466;SDS011;60968;37.490;-122.288;2023-08-20T03:36:03;8.10;;;4.43;;
29466;SDS011;60968;37.490;-122.288;2023-08-20T03:39:04;8.40;;;4.10;;
29466;SDS011;60968;37.490;-122.288;2023-08-20T03:42:05;10.03;;;4.77;;
29466;SDS011;60968;37.490;-122.288;2023-08-20T03:45:06;12.37;;;5.43;;
29466;SDS011;60968;37.490;-122.288;2023-08-20T03:48:07;12.40;;;4.63;;
29466;SDS011;60968;37.490;-122.288;2023-08-20T03:51:09;13.27;;;4.90;;
29466;SDS011;60968;37.490;-122.288;2023-08-20T03:54:10;11.03;;;4.67;;
29466;SDS011;60968;37.490;-122.288;2023-08-20T03:57:10;14.47;;;4.90;;
29466;SDS011;60968;37.490;-122.288;2023-08-20T04:00:12;10.43;;;4.83;;
29466;SDS011;60968;37.490;-122.288;2023-08-20T04:03:13;8.70;;;4.70;;
29466;SDS011;60968;37.490;-122.288;2023-08-20T04:06:14;11.20;;;5.43;;
29466;SDS011;60968;37.490;-122.288;2023-08-20T04:09:15;10.43;;;4.60;;
29466;SDS011;60968;37.490;-122.288;2023-08-20T04:12:16;8.87;;;4.77;;
29466;SDS011;60968;37.490;-122.288;2023-08-20T04:15:17;10.33;;;5.10;;
29466;SDS011;60968;37.490;-122.288;2023-08-20T04:18:18;14.43;;;5.13;;
29466;SDS011;60968;37.490;-122.288;2023-08-20T04:21:19;9.53;;;4.50;;
29466;SDS011;60968;37.490;-122.288;2023-08-20T04:24:21;9.40;;;4.90;;
29466;SDS011;60968;37.490;-122.288;2023-08-20T04:27:22;10.13;;;4.40;;
29466;SDS011;60968;37.490;-122.288;2023-08-20T04:30:23;10.80;;;4.60;;
29466;SDS011;60968;37.490;-122.288;2023-08-20T04:33:36;17.10;;;4.83;;
29466;SDS011;60968;37.490;-122.288;2023-08-20T04:36:37;9.30;;;4.23;;
29466;SDS011;60968;37.490;-122.288;2023-08-20T04:39:38;9.60;;;4.40;;
29466;SDS011;60968;37.490;-122.288;2023-08-20T04:42:39;8.93;;;4.50;;
29466;SDS011;60968;37.490;-122.288;2023-08-20T04:45:40;7.93;;;4.40;;
29466;SDS011;60968;37.490;-122.288;2023-08-20T04:48:41;7.37;;;4.30;;
29466;SDS011;60968;37.490;-122.288;2023-08-20T04:51:42;8.50;;;4.23;;
29466;SDS011;60968;37.490;-122.288;2023-08-20T04:54:43;9.90;;;4.50;;
29466;SDS011;60968;37.490;-122.288;2023-08-20T04:57:44;10.73;;;4.77;;
29466;SDS011;60968;37.490;-122.288;2023-08-20T05:00:45;9.33;;;4.53;;
29466;SDS011;60968;37.490;-122.288;2023-08-20T05:03:46;8.07;;;4.43;;
29466;SDS011;60968;37.490;-122.288;2023-08-20T05:06:47;10.97;;;4.80;;
29466;SDS011;60968;37.490;-122.288;2023-08-20T05:09:49;8.47;;;4.30;;
29466;SDS011;60968;37.490;-122.288;2023-08-20T05:12:50;6.90;;;4.00;;
29466;SDS011;60968;37.490;-122.288;2023-08-20T05:15:51;10.83;;;4.50;;
29466;SDS011;60968;37.490;-122.288;2023-08-20T05:18:51;12.13;;;4.90;;
29466;SDS011;60968;37.490;-122.288;2023-08-20T05:21:52;6.90;;;4.67;;
29466;SDS011;60968;37.490;-122.288;2023-08-20T05:24:53;11.63;;;4.50;;
29466;SDS011;60968;37.490;-122.288;2023-08-20T05:27:54;9.27;;;4.40;;
29466;SDS011;60968;37.490;-122.288;2023-08-20T05:30:55;8.27;;;5.33;;
29466;SDS011;60968;37.490;-122.288;2023-08-20T05:33:56;11.53;;;5.43;;
29466;SDS011;60968;37.490;-122.288;2023-08-20T05:36:57;13.73;;;5.67;;
29466;SDS011;60968;37.490;-122.288;2023-08-20T05:39:58;11.27;;;5.33;;
29466;SDS011;60968;37.490;-122.288;2023-08-20T05:42:59;12.53;;;5.80;;
29466;SDS011;60968;37.490;-122.288;2023-08-20T05:46:00;10.77;;;5.40;;
29466;SDS011;60968;37.490;-122.288;2023-08-20T05:49:00;12.17;;;6.00;;
29466;SDS011;60968;37.490;-122.288;2023-08-20T05:52:01;10.20;;;4.83;;
29466;SDS011;60968;37.490;-122.288;2023-08-20T05:55:02;10.73;;;5.07;;
29466;SDS011;60968;37.490;-122.288;2023-08-20T05:58:03;11.77;;;4.90;;
29466;SDS011;60968;37.490;-122.288;2023-08-20T06:01:04;11.73;;;4.90;;
29466;SDS011;60968;37.490;-122.288;2023-08-20T06:04:05;9.33;;;4.90;;
29466;SDS011;60968;37.490;-122.288;2023-08-20T06:07:06;9.47;;;4.13;;
29466;SDS011;60968;37.490;-122.288;2023-08-20T06:10:07;9.17;;;4.63;;
29466;SDS011;60968;37.490;-122.288;2023-08-20T06:13:08;13.87;;;4.83;;
29466;SDS011;60968;37.490;-122.288;2023-08-20T06:16:09;7.57;;;4.33;;
29466;SDS011;60968;37.490;-122.288;2023-08-20T06:19:11;7.33;;;4.27;;
29466;SDS011;60968;37.490;-122.288;2023-08-20T06:22:12;9.53;;;5.17;;
29466;SDS011;60968;37.490;-122.288;2023-08-20T06:25:13;7.07;;;4.20;;
29466;SDS011;60968;37.490;-122.288;2023-08-20T06:28:13;7.97;;;4.30;;
29466;SDS011;60968;37.490;-122.288;2023-08-20T06:31:14;8.13;;;4.87;;
29466;SDS011;60968;37.490;-122.288;2023-08-20T06:34:15;6.73;;;4.60;;
29466;SDS011;60968;37.490;-122.288;2023-08-20T06:37:16;9.27;;;4.70;;
29466;SDS011;60968;37.490;-122.288;2023-08-20T06:40:17;9.87;;;5.20;;
29466;SDS011;60968;37.490;-122.288;2023-08-20T06:43:18;8.33;;;4.70;;
29466;SDS011;60968;37.490;-122.288;2023-08-20T06:46:19;7.47;;;4.43;;
29466;SDS011;60968;37.490;-122.288;2023-08-20T06:49:20;10.33;;;5.03;;
29466;SDS011;60968;37.490;-122.288;2023-08-20T06:52:21;14.60;;;5.13;;
29466;SDS011;60968;37.490;-122.288;2023-08-20T06:55:21;8.23;;;4.73;;
29466;SDS011;60968;37.490;-122.288;2023-08-20T06:58:22;11.07;;;4.77;;
29466;SDS011;60968;37.490;-122.288;2023-08-20T07:01:23;9.30;;;4.33;;
29466;SDS011;60968;37.490;-122.288;2023-08-20T07:04:24;9.07;;;4.97;;
29466;SDS011;60968;37.490;-122.288;2023-08-20T07:07:25;8.07;;;4.53;;
29466;SDS011;60968;37.490;-122.288;2023-08-20T07:10:26;8.67;;;4.20;;
29466;SDS011;60968;37.490;-122.288;2023-08-20T07:13:27;14.13;;;4.93;;
29466;SDS011;60968;37.490;-122.288;2023-08-20T07:16:28;10.63;;;5.07;;
29466;SDS011;60968;37.490;-122.288;2023-08-20T07:19:29;12.33;;;5.20;;
29466;SDS011;60968;37.490;-122.288;2023-08-20T07:22:29;10.83;;;4.53;;
29466;SDS011;60968;37.490;-122.288;2023-08-20T07:25:30;13.30;;;5.37;;
29466;SDS011;60968;37.490;-122.288;2023-08-20T07:28:31;11.77;;;5.37;;
29466;SDS011;60968;37.490;-122.288;2023-08-20T07:31:32;11.83;;;5.10;;
29466;SDS011;60968;37.490;-122.288;2023-08-20T07:34:34;12.20;;;6.13;;
29466;SDS011;60968;37.490;-122.288;2023-08-20T07:37:34;6.30;;;4.10;;
29466;SDS011;60968;37.490;-122.288;2023-08-20T07:40:35;9.90;;;4.93;;
29466;SDS011;60968;37.490;-122.288;2023-08-20T07:43:39;9.17;;;4.70;;
29466;SDS011;60968;37.490;-122.288;2023-08-20T07:46:41;11.40;;;4.93;;
29466;SDS011;60968;37.490;-122.288;2023-08-20T07:49:42;7.77;;;4.83;;
29466;SDS011;60968;37.490;-122.288;2023-08-20T07:52:43;8.30;;;5.10;;
29466;SDS011;60968;37.490;-122.288;2023-08-20T07:55:44;11.50;;;4.57;;
29466;SDS011;60968;37.490;-122.288;2023-08-20T07:58:44;9.23;;;4.43;;
29466;SDS011;60968;37.490;-122.288;2023-08-20T08:01:45;7.80;;;4.40;;
29466;SDS011;60968;37.490;-122.288;2023-08-20T08:04:46;9.50;;;5.03;;
29466;SDS011;60968;37.490;-122.288;2023-08-20T08:07:47;6.60;;;4.50;;
29466;SDS011;60968;37.490;-122.288;2023-08-20T08:10:48;9.20;;;4.63;;
29466;SDS011;60968;37.490;-122.288;2023-08-20T08:13:49;11.33;;;5.40;;
29466;SDS011;60968;37.490;-122.288;2023-08-20T08:16:50;9.17;;;4.67;;
29466;SDS011;60968;37.490;-122.288;2023-08-20T08:19:50;12.03;;;4.80;;
29466;SDS011;60968;37.490;-122.288;2023-08-20T08:22:51;12.37;;;5.90;;
29466;SDS011;60968;37.490;-122.288;2023-08-20T08:25:54;11.20;;;5.17;;
29466;SDS011;60968;37.490;-122.288;2023-08-20T08:28:54;9.17;;;5.70;;
29466;SDS011;60968;37.490;-122.288;2023-08-20T08:31:56;9.37;;;5.37;;
29466;SDS011;60968;37.490;-122.288;2023-08-20T08:34:57;12.30;;;5.97;;
29466;SDS011;60968;37.490;-122.288;2023-08-20T08:37:59;14.77;;;5.97;;
29466;SDS011;60968;37.490;-122.288;2023-08-20T08:41:00;13.40;;;5.87;;
29466;SDS011;60968;37.490;-122.288;2023-08-20T08:44:02;10.33;;;6.03;;
29466;SDS011;60968;37.490;-122.288;2023-08-20T08:47:06;12.87;;;6.40;;
29466;SDS011;60968;37.490;-122.288;2023-08-20T08:50:08;14.50;;;5.93;;
29466;SDS011;60968;37.490;-122.288;2023-08-20T08:53:09;12.13;;;5.50;;
29466;SDS011;60968;37.490;-122.288;2023-08-20T08:56:11;10.50;;;5.80;;
29466;SDS011;60968;37.490;-122.288;2023-08-20T08:59:12;10.50;;;5.00;;
29466;SDS011;60968;37.490;-122.288;2023-08-20T09:02:14;10.83;;;5.13;;
29466;SDS011;60968;37.490;-122.288;2023-08-20T09:05:18;10.77;;;4.77;;
29466;SDS011;60968;37.490;-122.288;2023-08-20T09:08:22;10.10;;;4.67;;
29466;SDS011;60968;37.490;-122.288;2023-08-20T09:11:33;7.23;;;4.47;;
29466;SDS011;60968;37.490;-122.288;2023-08-20T09:14:35;5.93;;;4.20;;
29466;SDS011;60968;37.490;-122.288;2023-08-20T09:17:36;7.57;;;4.20;;
29466;SDS011;60968;37.490;-122.288;2023-08-20T09:20:37;6.07;;;4.30;;
29466;SDS011;60968;37.490;-122.288;2023-08-20T09:23:38;5.37;;;3.50;;
29466;SDS011;60968;37.490;-122.288;2023-08-20T09:26:39;7.07;;;4.20;;
29466;SDS011;60968;37.490;-122.288;2023-08-20T09:29:50;6.03;;;4.23;;
29466;SDS011;60968;37.490;-122.288;2023-08-20T09:33:07;9.50;;;4.93;;
29466;SDS011;60968;37.490;-122.288;2023-08-20T09:36:11;12.70;;;4.30;;
29466;SDS011;60968;37.490;-122.288;2023-08-20T09:39:12;7.53;;;4.30;;
29466;SDS011;60968;37.490;-122.288;2023-08-20T09:42:13;6.83;;;3.90;;
29466;SDS011;60968;37.490;-122.288;2023-08-20T09:45:14;7.10;;;4.40;;
29466;SDS011;60968;37.490;-122.288;2023-08-20T09:48:17;8.23;;;4.03;;
29466;SDS011;60968;37.490;-122.288;2023-08-20T09:51:21;6.93;;;3.90;;
29466;SDS011;60968;37.490;-122.288;2023-08-20T09:54:28;10.67;;;4.50;;
29466;SDS011;60968;37.490;-122.288;2023-08-20T09:57:52;6.93;;;4.30;;
29466;SDS011;60968;37.490;-122.288;2023-08-20T10:00:54;10.70;;;5.37;;
29466;SDS011;60968;37.490;-122.288;2023-08-20T10:03:55;10.90;;;5.57;;
29466;SDS011;60968;37.490;-122.288;2023-08-20T10:06:57;12.57;;;6.43;;
29466;SDS011;60968;37.490;-122.288;2023-08-20T10:10:01;15.37;;;6.53;;
29466;SDS011;60968;37.490;-122.288;2023-08-20T10:13:06;10.43;;;5.60;;
29466;SDS011;60968;37.490;-122.288;2023-08-20T10:16:08;11.77;;;5.30;;
29466;SDS011;60968;37.490;-122.288;2023-08-20T10:19:09;7.70;;;4.67;;
29466;SDS011;60968;37.490;-122.288;2023-08-20T10:22:10;11.03;;;4.73;;
29466;SDS011;60968;37.490;-122.288;2023-08-20T10:25:12;7.27;;;4.60;;
29466;SDS011;60968;37.490;-122.288;2023-08-20T10:28:25;7.67;;;4.00;;
29466;SDS011;60968;37.490;-122.288;2023-08-20T10:31:26;7.70;;;4.20;;
29466;SDS011;60968;37.490;-122.288;2023-08-20T10:34:36;8.40;;;3.80;;
29466;SDS011;60968;37.490;-122.288;2023-08-20T10:37:37;8.97;;;3.87;;
29466;SDS011;60968;37.490;-122.288;2023-08-20T10:40:54;8.00;;;3.90;;
29466;SDS011;60968;37.490;-122.288;2023-08-20T10:43:59;11.00;;;4.33;;
29466;SDS011;60968;37.490;-122.288;2023-08-20T10:47:00;8.17;;;4.63;;
29466;SDS011;60968;37.490;-122.288;2023-08-20T10:50:16;6.80;;;4.50;;
29466;SDS011;60968;37.490;-122.288;2023-08-20T10:53:21;6.13;;;4.10;;
29466;SDS011;60968;37.490;-122.288;2023-08-20T10:56:24;9.13;;;4.03;;
29466;SDS011;60968;37.490;-122.288;2023-08-20T10:59:41;9.87;;;4.40;;
29466;SDS011;60968;37.490;-122.288;2023-08-20T11:02:42;4.43;;;3.50;;
29466;SDS011;60968;37.490;-122.288;2023-08-20T11:05:44;6.77;;;4.17;;
29466;SDS011;60968;37.490;-122.288;2023-08-20T11:08:50;7.90;;;4.27;;
29466;SDS011;60968;37.490;-122.288;2023-08-20T11:11:52;7.77;;;4.50;;
29466;SDS011;60968;37.490;-122.288;2023-08-20T11:14:53;10.40;;;5.83;;
29466;SDS011;60968;37.490;-122.288;2023-08-20T11:17:59;13.43;;;6.10;;
29466;SDS011;60968;37.490;-122.288;2023-08-20T11:21:01;11.67;;;5.30;;
29466;SDS011;60968;37.490;-122.288;2023-08-20T11:24:02;9.37;;;5.93;;
29466;SDS011;60968;37.490;-122.288;2023-08-20T11:27:03;14.27;;;6.13;;
29466;SDS011;60968;37.490;-122.288;2023-08-20T11:30:04;9.70;;;6.37;;
29466;SDS011;60968;37.490;-122.288;2023-08-20T11:33:05;12.40;;;6.30;;
29466;SDS011;60968;37.490;-122.288;2023-08-20T11:36:06;14.90;;;7.07;;
29466;SDS011;60968;37.490;-122.288;2023-08-20T11:39:07;17.23;;;7.57;;
29466;SDS011;60968;37.490;-122.288;2023-08-20T11:42:08;15.73;;;8.00;;
29466;SDS011;60968;37.490;-122.288;2023-08-20T11:45:10;19.03;;;10.03;;
29466;SDS011;60968;37.490;-122.288;2023-08-20T11:48:11;21.77;;;10.30;;
29466;SDS011;60968;37.490;-122.288;2023-08-20T11:51:12;21.33;;;8.60;;
29466;SDS011;60968;37.490;-122.288;2023-08-20T11:54:13;18.00;;;8.90;;
29466;SDS011;60968;37.490;-122.288;2023-08-20T11:57:15;14.07;;;7.90;;
29466;SDS011;60968;37.490;-122.288;2023-08-20T12:00:25;16.00;;;6.63;;
29466;SDS011;60968;37.490;-122.288;2023-08-20T12:03:29;12.43;;;5.90;;
29466;SDS011;60968;37.490;-122.288;2023-08-20T12:06:30;14.37;;;5.90;;
29466;SDS011;60968;37.490;-122.288;2023-08-20T12:09:31;10.67;;;5.67;;
29466;SDS011;60968;37.490;-122.288;2023-08-20T12:12:34;11.90;;;5.70;;
29466;SDS011;60968;37.490;-122.288;2023-08-20T12:15:34;14.57;;;7.40;;
29466;SDS011;60968;37.490;-122.288;2023-08-20T12:18:35;12.63;;;7.93;;
29466;SDS011;60968;37.490;-122.288;2023-08-20T12:21:37;14.70;;;7.07;;
29466;SDS011;60968;37.490;-122.288;2023-08-20T12:24:38;13.47;;;6.27;;
29466;SDS011;60968;37.490;-122.288;2023-08-20T12:27:39;18.30;;;6.40;;
29466;SDS011;60968;37.490;-122.288;2023-08-20T12:30:41;11.53;;;5.57;;
29466;SDS011;60968;37.490;-122.288;2023-08-20T12:33:42;9.73;;;5.07;;
29466;SDS011;60968;37.490;-122.288;2023-08-20T12:36:43;11.57;;;5.20;;
29466;SDS011;60968;37.490;-122.288;2023-08-20T12:39:44;17.33;;;5.17;;
29466;SDS011;60968;37.490;-122.288;2023-08-20T12:42:45;11.50;;;4.70;;
29466;SDS011;60968;37.490;-122.288;2023-08-20T12:45:45;11.37;;;4.83;;
29466;SDS011;60968;37.490;-122.288;2023-08-20T12:48:46;14.73;;;5.77;;
29466;SDS011;60968;37.490;-122.288;2023-08-20T12:51:47;12.90;;;5.70;;
29466;SDS011;60968;37.490;-122.288;2023-08-20T12:54:48;16.50;;;6.47;;
29466;SDS011;60968;37.490;-122.288;2023-08-20T12:57:53;25.03;;;7.13;;
29466;SDS011;60968;37.490;-122.288;2023-08-20T13:00:55;18.73;;;6.40;;
29466;SDS011;60968;37.490;-122.288;2023-08-20T13:03:56;12.57;;;5.37;;
29466;SDS011;60968;37.490;-122.288;2023-08-20T13:06:57;10.90;;;5.47;;
29466;SDS011;60968;37.490;-122.288;2023-08-20T13:09:58;17.97;;;5.90;;
29466;SDS011;60968;37.490;-122.288;2023-08-20T13:13:00;19.23;;;7.97;;
29466;SDS011;60968;37.490;-122.288;2023-08-20T13:16:01;16.90;;;8.87;;
29466;SDS011;60968;37.490;-122.288;2023-08-20T13:19:04;18.23;;;9.00;;
29466;SDS011;60968;37.490;-122.288;2023-08-20T13:22:05;23.37;;;9.13;;
29466;SDS011;60968;37.490;-122.288;2023-08-20T13:25:06;17.43;;;8.43;;
29466;SDS011;60968;37.490;-122.288;2023-08-20T13:28:07;27.83;;;11.20;;
29466;SDS011;60968;37.490;-122.288;2023-08-20T13:31:08;21.13;;;9.20;;
29466;SDS011;60968;37.490;-122.288;2023-08-20T13:34:09;28.83;;;11.40;;
29466;SDS011;60968;37.490;-122.288;2023-08-20T13:37:10;23.37;;;9.83;;
29466;SDS011;60968;37.490;-122.288;2023-08-20T13:40:11;30.07;;;11.87;;
29466;SDS011;60968;37.490;-122.288;2023-08-20T13:43:12;29.23;;;12.23;;
29466;SDS011;60968;37.490;-122.288;2023-08-20T13:46:13;27.27;;;12.00;;
29466;SDS011;60968;37.490;-122.288;2023-08-20T13:49:13;34.30;;;12.13;;
29466;SDS011;60968;37.490;-122.288;2023-08-20T13:52:14;27.27;;;11.23;;
29466;SDS011;60968;37.490;-122.288;2023-08-20T13:55:15;33.00;;;13.17;;
29466;SDS011;60968;37.490;-122.288;2023-08-20T13:58:16;25.53;;;12.50;;
29466;SDS011;60968;37.490;-122.288;2023-08-20T14:01:17;31.23;;;13.23;;
29466;SDS011;60968;37.490;-122.288;2023-08-20T14:04:18;29.37;;;12.13;;
29466;SDS011;60968;37.490;-122.288;2023-08-20T14:07:19;33.60;;;11.70;;
29466;SDS011;60968;37.490;-122.288;2023-08-20T14:10:19;27.83;;;11.77;;
29466;SDS011;60968;37.490;-122.288;2023-08-20T14:13:20;34.10;;;12.93;;
29466;SDS011;60968;37.490;-122.288;2023-08-20T14:16:21;24.83;;;11.20;;
29466;SDS011;60968;37.490;-122.288;2023-08-20T14:19:22;30.10;;;12.20;;
29466;SDS011;60968;37.490;-122.288;2023-08-20T14:22:23;34.60;;;13.70;;
29466;SDS011;60968;37.490;-122.288;2023-08-20T14:25:24;30.40;;;12.73;;
29466;SDS011;60968;37.490;-122.288;2023-08-20T14:28:26;27.67;;;11.77;;
29466;SDS011;60968;37.490;-122.288;2023-08-20T14:31:27;27.13;;;11.53;;
29466;SDS011;60968;37.490;-122.288;2023-08-20T14:34:28;26.33;;;11.47;;
29466;SDS011;60968;37.490;-122.288;2023-08-20T14:37:29;29.97;;;12.37;;
29466;SDS011;60968;37.490;-122.288;2023-08-20T14:40:30;34.67;;;13.37;;
29466;SDS011;60968;37.490;-122.288;2023-08-20T14:43:31;31.77;;;12.50;;
29466;SDS011;60968;37.490;-122.288;2023-08-20T14:46:32;30.50;;;11.97;;
29466;SDS011;60968;37.490;-122.288;2023-08-20T14:49:35;31.17;;;13.03;;
29466;SDS011;60968;37.490;-122.288;2023-08-20T14:52:35;30.00;;;13.67;;
29466;SDS011;60968;37.490;-122.288;2023-08-20T14:55:36;28.63;;;11.40;;
29466;SDS011;60968;37.490;-122.288;2023-08-20T14:58:37;27.37;;;12.07;;
29466;SDS011;60968;37.490;-122.288;2023-08-20T15:01:38;26.17;;;11.70;;
29466;SDS011;60968;37.490;-122.288;2023-08-20T15:04:39;31.60;;;12.37;;
29466;SDS011;60968;37.490;-122.288;2023-08-20T15:07:40;27.40;;;11.77;;
29466;SDS011;60968;37.490;-122.288;2023-08-20T15:10:41;26.73;;;12.37;;
29466;SDS011;60968;37.490;-122.288;2023-08-20T15:13:42;27.63;;;12.27;;
29466;SDS011;60968;37.490;-122.288;2023-08-20T15:16:43;32.77;;;12.33;;
29466;SDS011;60968;37.490;-122.288;2023-08-20T15:19:45;30.13;;;11.50;;
29466;SDS011;60968;37.490;-122.288;2023-08-20T15:22:46;18.73;;;10.73;;
29466;SDS011;60968;37.490;-122.288;2023-08-20T15:25:47;25.43;;;10.37;;
29466;SDS011;60968;37.490;-122.288;2023-08-20T15:28:48;20.27;;;10.27;;
29466;SDS011;60968;37.490;-122.288;2023-08-20T15:31:49;21.67;;;10.13;;
29466;SDS011;60968;37.490;-122.288;2023-08-20T15:34:50;21.50;;;9.33;;
29466;SDS011;60968;37.490;-122.288;2023-08-20T15:37:51;23.13;;;9.50;;
29466;SDS011;60968;37.490;-122.288;2023-08-20T15:40:53;24.20;;;9.80;;
29466;SDS011;60968;37.490;-122.288;2023-08-20T15:43:54;21.77;;;8.90;;
29466;SDS011;60968;37.490;-122.288;2023-08-20T15:46:55;21.53;;;9.37;;
29466;SDS011;60968;37.490;-122.288;2023-08-20T15:49:56;26.77;;;9.57;;
29466;SDS011;60968;37.490;-122.288;2023-08-20T15:52:56;19.87;;;8.57;;
29466;SDS011;60968;37.490;-122.288;2023-08-20T15:55:57;16.97;;;7.30;;
29466;SDS011;60968;37.490;-122.288;2023-08-20T15:58:58;15.87;;;7.83;;
29466;SDS011;60968;37.490;-122.288;2023-08-20T16:01:59;11.73;;;6.90;;
29466;SDS011;60968;37.490;-122.288;2023-08-20T16:05:00;18.77;;;7.57;;
29466;SDS011;60968;37.490;-122.288;2023-08-20T16:08:01;14.30;;;6.40;;
29466;SDS011;60968;37.490;-122.288;2023-08-20T16:11:02;12.13;;;6.63;;
29466;SDS011;60968;37.490;-122.288;2023-08-20T16:14:03;12.47;;;6.90;;
29466;SDS011;60968;37.490;-122.288;2023-08-20T16:17:04;19.03;;;7.77;;
29466;SDS011;60968;37.490;-122.288;2023-08-20T16:20:06;14.77;;;6.87;;
29466;SDS011;60968;37.490;-122.288;2023-08-20T16:23:07;17.80;;;7.03;;
29466;SDS011;60968;37.490;-122.288;2023-08-20T16:26:08;15.77;;;6.87;;
29466;SDS011;60968;37.490;-122.288;2023-08-20T16:29:09;15.90;;;7.20;;
29466;SDS011;60968;37.490;-122.288;2023-08-20T16:32:10;15.13;;;6.70;;
29466;SDS011;60968;37.490;-122.288;2023-08-20T16:35:11;20.30;;;7.10;;
29466;SDS011;60968;37.490;-122.288;2023-08-20T16:38:12;12.87;;;6.37;;
29466;SDS011;60968;37.490;-122.288;2023-08-20T16:41:13;13.07;;;6.47;;
29466;SDS011;60968;37.490;-122.288;2023-08-20T16:44:14;10.53;;;5.97;;
29466;SDS011;60968;37.490;-122.288;2023-08-20T16:47:15;15.27;;;6.90;;
29466;SDS011;60968;37.490;-122.288;2023-08-20T16:50:16;17.13;;;6.47;;
29466;SDS011;60968;37.490;-122.288;2023-08-20T16:53:17;15.03;;;6.60;;
29466;SDS011;60968;37.490;-122.288;2023-08-20T16:56:18;14.87;;;5.87;;
29466;SDS011;60968;37.490;-122.288;2023-08-20T16:59:19;18.63;;;6.43;;
29466;SDS011;60968;37.490;-122.288;2023-08-20T17:02:20;17.20;;;6.43;;
29466;SDS011;60968;37.490;-122.288;2023-08-20T17:05:20;17.30;;;6.50;;
29466;SDS011;60968;37.490;-122.288;2023-08-20T17:08:21;16.10;;;6.87;;
29466;SDS011;60968;37.490;-122.288;2023-08-20T17:11:22;17.67;;;6.77;;
29466;SDS011;60968;37.490;-122.288;2023-08-20T17:14:23;14.60;;;6.53;;
29466;SDS011;60968;37.490;-122.288;2023-08-20T17:17:27;14.50;;;6.33;;
29466;SDS011;60968;37.490;-122.288;2023-08-20T17:20:28;13.87;;;6.63;;